createdAt,value
2023-03-30T00:00:01.098Z,10.70
2023-03-30T00:02:31.178Z,10.70
2023-03-30T00:05:03.361Z,10.80
2023-03-30T00:07:32.929Z,10.80
2023-03-30T00:10:02.826Z,10.70
2023-03-30T00:12:30.957Z,10.70
2023-03-30T00:14:58.990Z,10.70
2023-03-30T00:17:27.099Z,10.80
2023-03-30T00:19:55.157Z,10.70
2023-03-30T00:22:23.490Z,10.80
2023-03-30T00:24:52.934Z,10.70
2023-03-30T00:27:20.899Z,10.80
2023-03-30T00:29:48.994Z,10.80
2023-03-30T00:32:17.009Z,10.80
2023-03-30T00:34:44.957Z,10.80
2023-03-30T00:37:13.125Z,10.80
2023-03-30T00:39:41.317Z,10.70
2023-03-30T00:42:16.128Z,10.70
2023-03-30T00:45:24.027Z,10.80
2023-03-30T00:48:00.009Z,10.70
2023-03-30T00:50:35.088Z,10.70
2023-03-30T00:53:08.445Z,10.70
2023-03-30T00:55:40.624Z,10.70
2023-03-30T00:58:11.194Z,10.70
2023-03-30T01:00:43.334Z,10.70
2023-03-30T01:03:18.810Z,10.70
2023-03-30T01:05:48.373Z,10.70
2023-03-30T01:08:18.359Z,10.70
2023-03-30T01:10:46.472Z,10.60
2023-03-30T01:13:16.596Z,10.60
2023-03-30T01:16:02.660Z,10.60
2023-03-30T01:18:47.584Z,10.60
2023-03-30T01:22:01.182Z,10.60
2023-03-30T01:25:06.443Z,10.60
2023-03-30T01:28:22.624Z,10.60
2023-03-30T01:31:15.259Z,10.60
2023-03-30T01:34:06.205Z,10.60
2023-03-30T01:37:09.111Z,10.50
2023-03-30T01:39:47.215Z,10.50
2023-03-30T01:42:22.845Z,10.50
2023-03-30T01:45:00.057Z,10.50
2023-03-30T01:47:38.550Z,10.50
2023-03-30T01:50:12.777Z,10.50
2023-03-30T01:52:44.794Z,10.60
2023-03-30T01:55:19.237Z,10.60
2023-03-30T01:57:51.547Z,10.60
2023-03-30T02:00:22.763Z,10.60
2023-03-30T02:02:57.020Z,10.60
2023-03-30T02:05:27.585Z,10.70
2023-03-30T02:08:01.251Z,10.70
2023-03-30T02:10:33.941Z,10.70
2023-03-30T02:13:02.621Z,10.70
2023-03-30T02:15:36.401Z,10.70
2023-03-30T02:18:04.894Z,10.80
2023-03-30T02:20:34.620Z,10.70
2023-03-30T02:23:03.633Z,10.80
2023-03-30T02:25:33.038Z,10.80
2023-03-30T02:28:01.704Z,10.90
2023-03-30T02:30:34.192Z,10.90
2023-03-30T02:33:02.303Z,10.90
2023-03-30T02:35:57.396Z,10.90
2023-03-30T02:38:54.938Z,11.00
2023-03-30T02:41:39.777Z,11.00
2023-03-30T02:44:17.266Z,11.00
2023-03-30T02:46:54.732Z,11.10
2023-03-30T02:49:32.117Z,11.20
2023-03-30T02:52:11.109Z,11.20
2023-03-30T02:54:48.511Z,11.20
2023-03-30T02:57:29.518Z,11.20
2023-03-30T03:00:01.313Z,11.20
2023-03-30T03:02:32.170Z,11.30
2023-03-30T03:05:04.133Z,11.30
2023-03-30T03:07:33.873Z,11.30
2023-03-30T03:10:02.267Z,11.30
2023-03-30T03:12:31.791Z,11.30
2023-03-30T03:15:01.906Z,11.30
2023-03-30T03:17:34.380Z,11.40
2023-03-30T03:20:03.607Z,11.40
2023-03-30T03:22:31.688Z,11.40
2023-03-30T03:24:59.676Z,11.50
2023-03-30T03:27:27.760Z,11.50
2023-03-30T03:29:57.791Z,11.50
2023-03-30T03:32:25.918Z,11.60
2023-03-30T03:34:54.424Z,11.60
2023-03-30T03:37:22.456Z,11.60
2023-03-30T03:39:50.666Z,11.60
2023-03-30T03:42:18.906Z,11.70
2023-03-30T03:44:46.841Z,11.70
2023-03-30T03:47:16.832Z,11.70
2023-03-30T03:49:45.070Z,11.70
2023-03-30T03:52:13.054Z,11.80
2023-03-30T03:54:41.243Z,11.80
2023-03-30T03:57:09.393Z,11.80
2023-03-30T03:59:37.604Z,11.80
2023-03-30T04:02:06.559Z,11.80
2023-03-30T04:04:35.991Z,11.80
2023-03-30T04:07:03.986Z,11.80
2023-03-30T04:09:32.128Z,11.80
2023-03-30T04:12:00.217Z,11.80
2023-03-30T04:14:28.495Z,11.80
2023-03-30T04:16:57.818Z,11.80
2023-03-30T04:19:27.707Z,11.90
2023-03-30T04:21:58.939Z,11.90
2023-03-30T04:24:28.023Z,11.90
2023-03-30T04:26:57.690Z,11.90
2023-03-30T04:29:26.089Z,11.90
2023-03-30T04:31:54.341Z,11.90
2023-03-30T04:34:23.161Z,11.90
2023-03-30T04:36:51.307Z,11.90
2023-03-30T04:39:21.620Z,11.90
2023-03-30T04:41:52.208Z,11.90
2023-03-30T04:44:20.878Z,12.00
2023-03-30T04:46:49.126Z,11.90
2023-03-30T04:49:17.084Z,11.90
2023-03-30T04:51:45.106Z,11.90
2023-03-30T04:54:13.381Z,11.90
2023-03-30T04:56:42.943Z,11.90
2023-03-30T04:59:10.998Z,11.90
2023-03-30T05:01:38.975Z,12.00
2023-03-30T05:04:07.401Z,11.90
2023-03-30T05:06:35.548Z,11.90
2023-03-30T05:09:03.868Z,11.90
2023-03-30T05:11:31.853Z,12.00
2023-03-30T05:14:01.292Z,12.00
2023-03-30T05:16:29.674Z,12.00
2023-03-30T05:18:58.026Z,12.00
2023-03-30T05:21:26.079Z,12.00
2023-03-30T05:23:54.088Z,12.00
2023-03-30T05:26:22.169Z,12.00
2023-03-30T05:28:50.183Z,12.00
2023-03-30T05:31:20.047Z,12.10
2023-03-30T05:33:49.036Z,12.10
2023-03-30T05:36:17.627Z,12.10
2023-03-30T05:38:45.806Z,12.10
2023-03-30T05:41:14.828Z,12.20
2023-03-30T05:43:42.955Z,12.20
2023-03-30T05:46:11.323Z,12.20
2023-03-30T05:48:40.677Z,12.30
2023-03-30T05:51:09.584Z,12.30
2023-03-30T05:53:37.695Z,12.30
2023-03-30T05:56:07.179Z,12.30
2023-03-30T05:58:35.227Z,12.30
2023-03-30T06:01:05.945Z,12.40
2023-03-30T06:03:34.356Z,12.40
2023-03-30T06:06:05.028Z,12.40
2023-03-30T06:08:33.155Z,12.40
2023-03-30T06:11:02.008Z,12.50
2023-03-30T06:13:30.500Z,12.50
2023-03-30T06:16:00.173Z,12.50
2023-03-30T06:18:29.705Z,12.50
2023-03-30T06:20:57.908Z,12.50
2023-03-30T06:23:27.893Z,12.50
2023-03-30T06:25:56.377Z,12.50
2023-03-30T06:28:25.083Z,12.50
2023-03-30T06:30:55.707Z,12.50
2023-03-30T06:33:25.589Z,12.60
2023-03-30T06:35:54.887Z,12.60
2023-03-30T06:38:24.157Z,12.60
2023-03-30T06:40:53.638Z,12.70
2023-03-30T06:43:25.904Z,12.70
2023-03-30T06:45:57.569Z,12.80
2023-03-30T06:48:26.731Z,12.80
2023-03-30T06:50:55.741Z,12.80
2023-03-30T06:53:25.878Z,12.80
2023-03-30T06:55:57.775Z,12.80
2023-03-30T06:58:27.613Z,12.80
2023-03-30T07:00:56.837Z,12.90
2023-03-30T07:03:26.906Z,12.90
2023-03-30T07:05:55.721Z,12.90
2023-03-30T07:08:24.372Z,13.00
2023-03-30T07:10:52.700Z,13.00
2023-03-30T07:13:22.200Z,13.10
2023-03-30T07:15:53.364Z,13.20
2023-03-30T07:18:21.616Z,13.20
2023-03-30T07:20:49.806Z,13.30
2023-03-30T07:23:19.690Z,13.30
2023-03-30T07:25:48.319Z,13.40
2023-03-30T07:28:19.693Z,13.30
2023-03-30T07:30:49.252Z,13.40
2023-03-30T07:33:20.320Z,13.40
2023-03-30T07:35:50.144Z,13.50
2023-03-30T07:38:19.164Z,13.60
2023-03-30T07:40:47.473Z,13.60
2023-03-30T07:43:15.505Z,13.80
2023-03-30T07:45:45.655Z,13.80
2023-03-30T07:48:15.089Z,14.00
2023-03-30T07:50:45.498Z,14.10
2023-03-30T07:53:13.687Z,14.30
2023-03-30T07:55:42.409Z,14.60
2023-03-30T07:58:14.602Z,14.80
2023-03-30T08:00:42.870Z,15.00
2023-03-30T08:03:16.735Z,14.90
2023-03-30T08:05:46.210Z,14.90
2023-03-30T08:08:17.392Z,14.80
2023-03-30T08:10:46.339Z,14.70
2023-03-30T08:13:14.870Z,14.70
2023-03-30T08:15:43.322Z,14.60
2023-03-30T08:18:17.083Z,14.60
2023-03-30T08:20:46.617Z,14.50
2023-03-30T08:23:14.659Z,14.60
2023-03-30T08:25:47.068Z,14.60
2023-03-30T08:28:15.316Z,14.60
2023-03-30T08:30:45.241Z,14.70
2023-03-30T08:33:14.611Z,14.80
2023-03-30T08:35:49.544Z,14.80
2023-03-30T08:38:18.921Z,14.90
2023-03-30T08:40:51.382Z,15.00
2023-03-30T08:43:44.584Z,15.10
2023-03-30T08:46:17.244Z,15.20
2023-03-30T08:48:46.703Z,15.20
2023-03-30T08:51:24.749Z,15.20
2023-03-30T08:53:57.942Z,15.40
2023-03-30T08:56:33.056Z,15.50
2023-03-30T08:59:12.558Z,15.60
2023-03-30T09:01:48.937Z,15.70
2023-03-30T09:04:27.946Z,15.80
2023-03-30T09:07:11.048Z,15.80
2023-03-30T09:09:49.344Z,15.80
2023-03-30T09:12:23.050Z,15.70
2023-03-30T09:14:55.402Z,15.70
2023-03-30T09:17:32.378Z,15.60
2023-03-30T09:20:06.980Z,15.60
2023-03-30T09:22:40.686Z,15.80
2023-03-30T09:25:21.639Z,16.00
2023-03-30T09:27:59.750Z,16.20
2023-03-30T09:30:34.530Z,16.30
2023-03-30T09:33:12.582Z,16.10
2023-03-30T09:35:44.655Z,16.00
2023-03-30T09:38:15.162Z,15.90
2023-03-30T09:41:06.658Z,15.80
2023-03-30T09:43:37.518Z,15.90
2023-03-30T09:46:07.933Z,15.90
2023-03-30T09:48:41.219Z,16.00
2023-03-30T09:51:19.173Z,16.10
2023-03-30T09:53:50.298Z,16.10
2023-03-30T09:56:22.194Z,16.10
2023-03-30T09:58:50.541Z,16.00
2023-03-30T10:01:21.126Z,16.00
2023-03-30T10:04:08.517Z,15.80
2023-03-30T10:06:40.468Z,15.70
2023-03-30T10:09:13.206Z,15.50
2023-03-30T10:11:44.389Z,15.40
2023-03-30T10:14:31.731Z,15.10
2023-03-30T10:17:00.682Z,15.00
2023-03-30T10:19:29.093Z,15.00
2023-03-30T10:21:58.883Z,15.00
2023-03-30T10:24:31.730Z,15.00
2023-03-30T10:27:03.680Z,15.00
2023-03-30T10:29:32.222Z,15.00
2023-03-30T10:32:03.636Z,15.10
2023-03-30T10:34:38.950Z,15.20
2023-03-30T10:37:13.665Z,15.20
2023-03-30T10:39:47.035Z,15.10
2023-03-30T10:42:19.996Z,15.10
2023-03-30T10:44:52.289Z,15.10
2023-03-30T10:47:38.609Z,15.00
2023-03-30T10:50:16.302Z,15.00
2023-03-30T10:52:59.208Z,15.10
2023-03-30T10:55:35.698Z,15.10
2023-03-30T10:58:16.208Z,15.00
2023-03-30T11:00:53.552Z,15.00
2023-03-30T11:03:27.191Z,15.10
2023-03-30T11:05:58.761Z,15.30
2023-03-30T11:08:30.925Z,15.40
2023-03-30T11:11:01.950Z,15.60
2023-03-30T11:13:35.051Z,15.60
2023-03-30T11:16:09.119Z,15.50
2023-03-30T11:18:42.675Z,15.40
2023-03-30T11:21:17.880Z,15.40
2023-03-30T11:23:53.177Z,15.30
2023-03-30T11:26:32.658Z,15.20
2023-03-30T11:29:15.606Z,15.00
2023-03-30T11:31:56.718Z,14.90
2023-03-30T11:34:32.760Z,14.90
2023-03-30T11:37:13.571Z,15.00
2023-03-30T11:39:48.557Z,15.00
2023-03-30T11:42:23.323Z,15.10
2023-03-30T11:44:52.716Z,15.20
2023-03-30T11:47:42.749Z,15.20
2023-03-30T11:50:29.944Z,15.40
2023-03-30T11:53:11.476Z,15.60
2023-03-30T11:55:55.590Z,15.80
2023-03-30T11:58:35.141Z,16.10
2023-03-30T12:01:23.376Z,16.30
2023-03-30T12:03:54.472Z,16.40
2023-03-30T12:06:30.890Z,16.20
2023-03-30T12:09:26.329Z,16.00
2023-03-30T12:12:03.220Z,15.80
2023-03-30T12:14:59.881Z,15.70
2023-03-30T12:17:38.553Z,15.50
2023-03-30T12:20:18.038Z,15.40
2023-03-30T12:22:49.437Z,15.30
2023-03-30T12:25:28.365Z,15.30
2023-03-30T12:28:04.476Z,15.50
2023-03-30T12:30:45.206Z,15.70
2023-03-30T12:33:18.303Z,15.90
2023-03-30T12:35:58.548Z,16.00
2023-03-30T12:38:30.028Z,16.00
2023-03-30T12:41:18.608Z,16.00
2023-03-30T12:44:26.138Z,15.90
2023-03-30T12:47:12.081Z,15.80
2023-03-30T12:49:52.973Z,15.80
2023-03-30T12:52:31.371Z,15.80
2023-03-30T12:55:22.603Z,15.60
2023-03-30T12:58:06.022Z,15.60
2023-03-30T13:01:01.748Z,15.60
2023-03-30T13:03:40.903Z,15.60
2023-03-30T13:06:16.897Z,15.50
2023-03-30T13:08:45.464Z,15.50
2023-03-30T13:11:18.531Z,15.60
2023-03-30T13:13:53.522Z,15.60
2023-03-30T13:16:46.913Z,15.70
2023-03-30T13:19:26.212Z,15.70
2023-03-30T13:21:58.996Z,15.90
2023-03-30T13:24:36.984Z,16.00
2023-03-30T13:27:25.798Z,16.10
2023-03-30T13:29:57.545Z,16.10
2023-03-30T13:32:39.478Z,16.00
2023-03-30T13:35:43.368Z,16.00
2023-03-30T13:38:37.265Z,16.40
2023-03-30T13:41:16.788Z,16.80
2023-03-30T13:43:57.395Z,17.00
2023-03-30T13:46:34.022Z,17.10
2023-03-30T13:49:15.385Z,17.10
2023-03-30T13:51:46.396Z,17.00
2023-03-30T13:54:18.681Z,16.90
2023-03-30T13:56:53.899Z,16.80
2023-03-30T13:59:25.828Z,16.60
2023-03-30T14:01:56.684Z,16.40
2023-03-30T14:04:29.529Z,16.30
2023-03-30T14:07:05.618Z,16.40
2023-03-30T14:09:34.844Z,16.40
2023-03-30T14:12:06.032Z,16.40
2023-03-30T14:14:38.730Z,16.20
2023-03-30T14:17:17.112Z,16.30
2023-03-30T14:19:57.111Z,16.40
2023-03-30T14:22:29.028Z,16.40
2023-03-30T14:24:59.272Z,16.40
2023-03-30T14:27:33.146Z,16.40
2023-03-30T14:30:01.180Z,16.30
2023-03-30T14:32:30.998Z,16.30
2023-03-30T14:34:59.207Z,16.20
2023-03-30T14:37:32.082Z,16.10
2023-03-30T14:40:00.598Z,16.10
2023-03-30T14:42:34.827Z,16.10
2023-03-30T14:45:03.270Z,16.30
2023-03-30T14:47:31.573Z,16.50
2023-03-30T14:50:04.071Z,16.60
2023-03-30T14:52:39.295Z,16.70
2023-03-30T14:55:13.773Z,16.60
2023-03-30T14:57:46.242Z,16.70
2023-03-30T15:00:18.261Z,16.70
2023-03-30T15:02:47.762Z,16.70
2023-03-30T15:05:17.988Z,16.70
2023-03-30T15:07:50.727Z,16.70
2023-03-30T15:10:24.475Z,16.90
2023-03-30T15:12:54.332Z,17.00
2023-03-30T15:15:28.875Z,17.10
2023-03-30T15:17:57.512Z,17.10
2023-03-30T15:20:32.956Z,16.90
2023-03-30T15:23:02.735Z,16.70
2023-03-30T15:25:35.148Z,16.60
2023-03-30T15:28:06.691Z,16.70
2023-03-30T15:30:37.438Z,16.70
2023-03-30T15:33:07.515Z,16.50
2023-03-30T15:35:38.190Z,16.30
2023-03-30T15:38:16.932Z,16.30
2023-03-30T15:40:46.408Z,16.20
2023-03-30T15:43:17.372Z,16.30
2023-03-30T15:45:51.565Z,16.20
2023-03-30T15:48:22.889Z,16.30
2023-03-30T15:50:56.044Z,16.30
2023-03-30T15:53:35.044Z,16.30
2023-03-30T15:56:05.043Z,16.30
2023-03-30T15:58:35.149Z,16.30
2023-03-30T16:01:08.006Z,16.20
2023-03-30T16:03:40.334Z,16.20
2023-03-30T16:06:12.851Z,16.10
2023-03-30T16:08:44.487Z,16.10
2023-03-30T16:11:15.192Z,16.10
2023-03-30T16:13:44.926Z,16.10
2023-03-30T16:16:13.942Z,16.00
2023-03-30T16:18:42.873Z,15.90
2023-03-30T16:21:12.434Z,15.90
2023-03-30T16:23:41.868Z,15.90
2023-03-30T16:26:12.232Z,15.90
2023-03-30T16:28:42.736Z,15.80
2023-03-30T16:31:17.347Z,15.80
2023-03-30T16:33:45.486Z,15.70
2023-03-30T16:36:19.130Z,15.60
2023-03-30T16:38:48.898Z,15.40
2023-03-30T16:41:21.445Z,15.40
2023-03-30T16:43:52.102Z,15.30
2023-03-30T16:46:24.358Z,15.20
2023-03-30T16:48:52.332Z,15.10
2023-03-30T16:51:20.384Z,15.00
2023-03-30T16:53:49.817Z,14.90
2023-03-30T16:56:19.951Z,14.80
2023-03-30T16:58:49.659Z,14.80
2023-03-30T17:01:18.853Z,14.80
2023-03-30T17:03:50.194Z,14.90
2023-03-30T17:06:18.306Z,14.80
2023-03-30T17:08:46.388Z,14.80
2023-03-30T17:11:16.717Z,14.80
2023-03-30T17:13:46.944Z,14.70
2023-03-30T17:16:16.012Z,14.70
2023-03-30T17:18:44.059Z,14.60
2023-03-30T17:21:16.452Z,14.60
2023-03-30T17:23:45.283Z,14.60
2023-03-30T17:26:13.711Z,14.60
2023-03-30T17:28:44.061Z,14.50
2023-03-30T17:31:17.698Z,14.50
2023-03-30T17:33:45.914Z,14.40
2023-03-30T17:36:18.193Z,14.30
2023-03-30T17:38:48.744Z,14.20
2023-03-30T17:41:19.307Z,14.20
2023-03-30T17:43:49.731Z,14.10
2023-03-30T17:46:19.479Z,14.10
2023-03-30T17:48:51.234Z,14.10
2023-03-30T17:51:19.764Z,14.10
2023-03-30T17:53:52.727Z,14.10
2023-03-30T17:56:21.159Z,14.10
2023-03-30T17:58:52.982Z,14.10
2023-03-30T18:01:21.618Z,14.00
2023-03-30T18:03:49.747Z,14.00
2023-03-30T18:06:21.624Z,14.00
2023-03-30T18:08:49.681Z,14.00
2023-03-30T18:11:17.704Z,13.90
2023-03-30T18:13:45.808Z,13.90
2023-03-30T18:16:17.743Z,13.80
2023-03-30T18:18:48.162Z,13.80
2023-03-30T18:21:16.090Z,13.80
2023-03-30T18:23:44.113Z,13.80
2023-03-30T18:26:13.690Z,13.80
2023-03-30T18:28:44.713Z,13.70
2023-03-30T18:31:14.454Z,13.70
2023-03-30T18:33:43.678Z,13.70
2023-03-30T18:36:13.496Z,13.70
2023-03-30T18:38:42.043Z,13.60
2023-03-30T18:41:12.350Z,13.60
2023-03-30T18:43:40.329Z,13.50
2023-03-30T18:46:12.072Z,13.50
2023-03-30T18:48:41.452Z,13.50
2023-03-30T18:51:15.328Z,13.50
2023-03-30T18:53:43.263Z,13.50
2023-03-30T18:56:13.678Z,13.50
2023-03-30T18:58:44.103Z,13.50
2023-03-30T19:01:15.820Z,13.40
2023-03-30T19:03:45.809Z,13.40
2023-03-30T19:06:16.500Z,13.40
2023-03-30T19:08:44.547Z,13.40
2023-03-30T19:11:15.297Z,13.40
2023-03-30T19:13:47.086Z,13.40
2023-03-30T19:16:16.504Z,13.40
2023-03-30T19:18:45.952Z,13.40
2023-03-30T19:21:16.850Z,13.40
2023-03-30T19:23:46.491Z,13.40
2023-03-30T19:26:14.548Z,13.40
2023-03-30T19:28:42.777Z,13.40
2023-03-30T19:31:15.967Z,13.40
2023-03-30T19:33:45.471Z,13.40
2023-03-30T19:36:13.501Z,13.40
2023-03-30T19:38:43.761Z,13.30
2023-03-30T19:41:11.844Z,13.30
2023-03-30T19:43:50.083Z,13.20
2023-03-30T19:46:20.056Z,13.10
2023-03-30T19:48:49.500Z,13.00
2023-03-30T19:51:19.212Z,13.00
2023-03-30T19:53:47.262Z,12.90
2023-03-30T19:56:15.960Z,12.90
2023-03-30T19:58:43.988Z,12.90
2023-03-30T20:01:11.992Z,12.90
2023-03-30T20:03:40.249Z,12.90
2023-03-30T20:06:12.406Z,12.80
2023-03-30T20:08:41.044Z,12.80
2023-03-30T20:11:09.814Z,12.90
2023-03-30T20:13:38.378Z,12.80
2023-03-30T20:16:08.048Z,12.80
2023-03-30T20:18:40.177Z,12.70
2023-03-30T20:21:13.232Z,12.80
2023-03-30T20:23:41.281Z,12.80
2023-03-30T20:26:09.296Z,12.80
2023-03-30T20:28:37.537Z,12.70
2023-03-30T20:31:07.906Z,12.70
2023-03-30T20:33:38.110Z,12.80
2023-03-30T20:36:07.187Z,12.80
2023-03-30T20:38:41.750Z,12.80
2023-03-30T20:41:11.449Z,12.80
2023-03-30T20:43:55.833Z,12.80
2023-03-30T20:46:26.136Z,12.80
2023-03-30T20:48:55.048Z,12.80
2023-03-30T20:51:25.248Z,12.70
2023-03-30T20:53:55.049Z,12.70
2023-03-30T20:56:27.853Z,12.70
2023-03-30T20:58:56.388Z,12.70
2023-03-30T21:01:28.101Z,12.60
2023-03-30T21:03:58.179Z,12.60
2023-03-30T21:06:31.336Z,12.60
2023-03-30T21:09:03.009Z,12.50
2023-03-30T21:11:33.990Z,12.50
2023-03-30T21:14:02.655Z,12.40
2023-03-30T21:16:30.836Z,12.40
2023-03-30T21:19:07.563Z,12.40
2023-03-30T21:21:37.787Z,12.30
2023-03-30T21:24:08.809Z,12.30
2023-03-30T21:26:40.310Z,12.30
2023-03-30T21:29:08.691Z,12.30
2023-03-30T21:31:37.832Z,12.30
2023-03-30T21:34:07.084Z,12.30
2023-03-30T21:36:35.187Z,12.30
2023-03-30T21:39:05.718Z,12.20
2023-03-30T21:41:35.223Z,12.20
2023-03-30T21:44:06.241Z,12.20
2023-03-30T21:46:34.267Z,12.20
2023-03-30T21:49:02.520Z,12.20
2023-03-30T21:51:32.967Z,12.20
2023-03-30T21:54:01.243Z,12.20
2023-03-30T21:56:31.200Z,12.20
2023-03-30T21:59:00.771Z,12.20
2023-03-30T22:01:33.561Z,12.30
2023-03-30T22:04:02.692Z,12.30
2023-03-30T22:06:36.722Z,12.30
2023-03-30T22:09:04.944Z,12.30
2023-03-30T22:11:37.496Z,12.30
2023-03-30T22:14:07.216Z,12.30
2023-03-30T22:16:39.958Z,12.30
2023-03-30T22:19:08.229Z,12.30
2023-03-30T22:21:37.986Z,12.30
2023-03-30T22:24:08.395Z,12.30
2023-03-30T22:26:37.137Z,12.40
2023-03-30T22:29:06.945Z,12.30
2023-03-30T22:31:35.926Z,12.30
2023-03-30T22:34:04.026Z,12.30
2023-03-30T22:36:32.327Z,12.20
2023-03-30T22:39:01.900Z,12.20
2023-03-30T22:41:30.500Z,12.20
2023-03-30T22:43:59.698Z,12.20
2023-03-30T22:46:30.055Z,12.20
2023-03-30T22:48:58.176Z,12.20
2023-03-30T22:51:27.178Z,12.20
2023-03-30T22:53:57.998Z,12.20
2023-03-30T22:56:27.299Z,12.20
2023-03-30T22:58:56.024Z,12.20
2023-03-30T23:01:24.321Z,12.20
2023-03-30T23:03:54.391Z,12.20
2023-03-30T23:06:22.416Z,12.20
2023-03-30T23:08:52.694Z,12.20
2023-03-30T23:11:22.250Z,12.20
2023-03-30T23:13:52.317Z,12.20
2023-03-30T23:16:20.482Z,12.20
2023-03-30T23:18:48.974Z,12.20
2023-03-30T23:21:22.308Z,12.20
2023-03-30T23:23:50.751Z,12.20
2023-03-30T23:26:19.485Z,12.10
2023-03-30T23:28:47.808Z,12.20
2023-03-30T23:31:18.851Z,12.20
2023-03-30T23:33:47.150Z,12.10
2023-03-30T23:36:16.991Z,12.20
2023-03-30T23:38:47.006Z,12.20
2023-03-30T23:41:16.682Z,12.30
2023-03-30T23:43:44.775Z,12.20
2023-03-30T23:46:13.622Z,12.30
2023-03-30T23:48:42.172Z,12.30
2023-03-30T23:51:10.653Z,12.30
2023-03-30T23:53:40.182Z,12.20
2023-03-30T23:56:13.341Z,12.20
2023-03-30T23:58:42.073Z,12.20
